Mariupol, Ukraine
Current Conditions -  °F | °C
As of 12:30 AM on Friday 19 Dec 2014 (Local Time) from URRR Reporting Station
Rain Showers Rain Showers  
Wind Chill: 42°   Ceiling: 200
Heat Index: 46°   Visibility: 1.4mi
Dew Point: 46°   Wind: 9mph
Humidity: 100%   Direction: 220°SW
Pressure: 29.94"   Gusts: NA
Location:  47.1°N, 37.55°E
Report Text: URRR 182130Z 22004MPS 2300 -SHRA BR BKN002 FEW030CB OVC10008/08 Q1014 04290042 TEMPO 0400 FG OVC001 RMK QBB070 MAST OBSC
Loading
Personal Weather Stations






























Interactive Weather Map New forecast layout! Learn more

10-Day Weather Forecast

Advertisements
Track Severe Weather on mobile